createdAt,value
2023-12-21T00:00:58.194Z,7.30
2023-12-21T00:03:25.180Z,7.20
2023-12-21T00:05:52.382Z,7.20
2023-12-21T00:08:20.660Z,7.30
2023-12-21T00:10:47.512Z,7.30
2023-12-21T00:13:14.406Z,7.30
2023-12-21T00:15:41.218Z,7.30
2023-12-21T00:18:08.194Z,7.30
2023-12-21T00:20:34.910Z,7.30
2023-12-21T00:23:01.657Z,7.20
2023-12-21T00:25:28.534Z,7.20
2023-12-21T00:27:56.773Z,7.20
2023-12-21T00:30:23.734Z,7.10
2023-12-21T00:32:50.699Z,7.10
2023-12-21T00:35:17.606Z,7.00
2023-12-21T00:37:44.681Z,7.10
2023-12-21T00:40:12.343Z,7.10
2023-12-21T00:42:42.709Z,7.10
2023-12-21T00:45:09.964Z,7.10
2023-12-21T00:47:37.226Z,7.10
2023-12-21T00:50:04.577Z,7.10
2023-12-21T00:52:31.545Z,7.10
2023-12-21T00:54:58.375Z,7.10
2023-12-21T00:57:25.212Z,7.10
2023-12-21T00:59:52.065Z,7.10
2023-12-21T01:02:19.548Z,7.10
2023-12-21T01:04:46.679Z,7.10
2023-12-21T01:07:13.547Z,7.10
2023-12-21T01:09:40.340Z,7.20
2023-12-21T01:12:08.084Z,7.20
2023-12-21T01:14:35.201Z,7.20
2023-12-21T01:17:01.958Z,7.20
2023-12-21T01:19:29.019Z,7.30
2023-12-21T01:21:56.028Z,7.30
2023-12-21T01:24:22.858Z,7.40
2023-12-21T01:26:49.921Z,7.40
2023-12-21T01:29:16.735Z,7.40
2023-12-21T01:31:43.509Z,7.40
2023-12-21T01:34:10.509Z,7.40
2023-12-21T01:36:37.277Z,7.40
2023-12-21T01:39:04.533Z,7.50
2023-12-21T01:41:31.325Z,7.50
2023-12-21T01:43:58.189Z,7.50
2023-12-21T01:46:25.406Z,7.50
2023-12-21T01:48:52.986Z,7.50
2023-12-21T01:51:21.195Z,7.50
2023-12-21T01:53:49.265Z,7.60
2023-12-21T01:56:16.423Z,7.60
2023-12-21T01:58:43.241Z,7.60
2023-12-21T02:01:11.177Z,7.50
2023-12-21T02:03:39.462Z,7.60
2023-12-21T02:06:06.424Z,7.60
2023-12-21T02:08:33.127Z,7.60
2023-12-21T02:11:09.261Z,7.60
2023-12-21T02:13:36.245Z,7.60
2023-12-21T02:16:07.563Z,7.50
2023-12-21T02:18:34.835Z,7.60
2023-12-21T02:21:03.081Z,7.60
2023-12-21T02:23:31.450Z,7.60
2023-12-21T02:25:58.471Z,7.70
2023-12-21T02:28:25.549Z,7.60
2023-12-21T02:30:52.412Z,7.60
2023-12-21T02:33:19.350Z,7.70
2023-12-21T02:35:46.146Z,7.70
2023-12-21T02:38:12.937Z,7.70
2023-12-21T02:40:39.912Z,7.70
2023-12-21T02:43:06.718Z,7.70
2023-12-21T02:45:33.589Z,7.70
2023-12-21T02:48:00.642Z,7.80
2023-12-21T02:50:27.334Z,7.70
2023-12-21T02:52:54.116Z,7.80
2023-12-21T02:55:21.031Z,7.80
2023-12-21T02:57:47.824Z,7.70
2023-12-21T03:00:15.503Z,7.80
2023-12-21T03:02:42.272Z,7.70
2023-12-21T03:05:09.662Z,7.70
2023-12-21T03:07:36.448Z,7.70
2023-12-21T03:10:03.787Z,7.80
2023-12-21T03:12:30.523Z,7.80
2023-12-21T03:14:57.369Z,7.80
2023-12-21T03:17:24.124Z,7.80
2023-12-21T03:19:50.983Z,7.80
2023-12-21T03:22:17.782Z,7.80
2023-12-21T03:24:44.845Z,7.80
2023-12-21T03:27:14.192Z,7.80
2023-12-21T03:29:42.432Z,7.80
2023-12-21T03:32:10.186Z,7.80
2023-12-21T03:34:37.190Z,7.80
2023-12-21T03:37:04.060Z,7.70
2023-12-21T03:39:30.934Z,7.80
2023-12-21T03:41:58.055Z,7.80
2023-12-21T03:44:24.807Z,7.80
2023-12-21T03:46:51.702Z,7.80
2023-12-21T03:49:18.625Z,7.80
2023-12-21T03:51:45.560Z,7.80
2023-12-21T03:54:12.452Z,7.90
2023-12-21T03:56:40.306Z,7.90
2023-12-21T03:59:07.140Z,8.00
2023-12-21T04:01:34.747Z,8.00
2023-12-21T04:04:01.785Z,8.00
2023-12-21T04:06:28.778Z,8.00
2023-12-21T04:08:55.661Z,8.00
2023-12-21T04:11:22.753Z,8.00
2023-12-21T04:13:49.724Z,8.00
2023-12-21T04:16:16.716Z,8.00
2023-12-21T04:18:43.930Z,8.00
2023-12-21T04:21:10.740Z,8.00
2023-12-21T04:23:37.632Z,8.10
2023-12-21T04:26:04.777Z,8.00
2023-12-21T04:28:31.930Z,8.10
2023-12-21T04:30:59.046Z,8.00
2023-12-21T04:33:26.143Z,8.00
2023-12-21T04:35:54.137Z,8.00
2023-12-21T04:38:21.254Z,8.00
2023-12-21T04:40:48.137Z,8.00
2023-12-21T04:43:14.925Z,8.00
2023-12-21T04:45:41.809Z,8.00
2023-12-21T04:48:09.247Z,8.00
2023-12-21T04:50:36.462Z,8.10
2023-12-21T04:53:03.884Z,8.10
2023-12-21T04:55:31.510Z,8.10
2023-12-21T04:57:58.693Z,8.10
2023-12-21T05:00:26.942Z,8.10
2023-12-21T05:02:53.698Z,8.10
2023-12-21T05:05:22.331Z,8.10
2023-12-21T05:07:49.322Z,8.10
2023-12-21T05:10:16.155Z,8.20
2023-12-21T05:12:43.202Z,8.10
2023-12-21T05:15:10.366Z,8.20
2023-12-21T05:17:37.327Z,8.20
2023-12-21T05:20:04.529Z,8.30
2023-12-21T05:22:32.132Z,8.30
2023-12-21T05:24:59.134Z,8.20
2023-12-21T05:27:27.252Z,8.20
2023-12-21T05:29:55.451Z,8.30
2023-12-21T05:32:33.203Z,8.30
2023-12-21T05:35:00.729Z,8.30
2023-12-21T05:37:28.545Z,8.30
2023-12-21T05:39:55.383Z,8.30
2023-12-21T05:42:22.211Z,8.20
2023-12-21T05:44:49.009Z,8.30
2023-12-21T05:47:16.075Z,8.30
2023-12-21T05:49:42.852Z,8.40
2023-12-21T05:52:09.854Z,8.30
2023-12-21T05:54:36.702Z,8.30
2023-12-21T05:57:04.093Z,8.30
2023-12-21T05:59:30.935Z,8.30
2023-12-21T06:01:58.149Z,8.30
2023-12-21T06:04:25.314Z,8.30
2023-12-21T06:06:52.485Z,8.30
2023-12-21T06:09:19.464Z,8.30
2023-12-21T06:11:47.970Z,8.30
2023-12-21T06:14:16.751Z,8.40
2023-12-21T06:16:43.694Z,8.40
2023-12-21T06:19:11.542Z,8.40
2023-12-21T06:21:41.662Z,8.40
2023-12-21T06:24:08.821Z,8.40
2023-12-21T06:26:43.082Z,8.40
2023-12-21T06:29:11.251Z,8.40
2023-12-21T06:31:38.638Z,8.40
2023-12-21T06:34:06.545Z,8.50
2023-12-21T06:36:33.790Z,8.50
2023-12-21T06:39:00.621Z,8.50
2023-12-21T06:41:30.812Z,8.60
2023-12-21T06:43:58.159Z,8.50
2023-12-21T06:46:25.593Z,8.60
2023-12-21T06:48:52.998Z,8.60
2023-12-21T06:51:20.102Z,8.50
2023-12-21T06:53:47.350Z,8.50
2023-12-21T06:56:28.257Z,8.50
2023-12-21T06:59:01.274Z,8.60
2023-12-21T07:01:29.307Z,8.60
2023-12-21T07:03:57.097Z,8.50
2023-12-21T07:06:26.557Z,8.50
2023-12-21T07:08:53.692Z,8.50
2023-12-21T07:11:20.793Z,8.50
2023-12-21T07:13:47.935Z,8.60
2023-12-21T07:16:15.045Z,8.50
2023-12-21T07:18:42.364Z,8.50
2023-12-21T07:21:09.595Z,8.50
2023-12-21T07:23:37.065Z,8.50
2023-12-21T07:26:04.831Z,8.50
2023-12-21T07:28:32.746Z,8.50
2023-12-21T07:31:02.964Z,8.60
2023-12-21T07:33:30.345Z,8.60
2023-12-21T07:35:57.586Z,8.60
2023-12-21T07:38:24.978Z,8.60
2023-12-21T07:40:53.268Z,8.50
2023-12-21T07:43:20.833Z,8.60
2023-12-21T07:45:48.441Z,8.70
2023-12-21T07:48:15.573Z,8.60
2023-12-21T07:50:42.737Z,8.50
2023-12-21T07:53:09.911Z,8.50
2023-12-21T07:55:36.942Z,8.50
2023-12-21T07:58:04.268Z,8.60
2023-12-21T08:00:31.374Z,8.50
2023-12-21T08:02:58.462Z,8.60
2023-12-21T08:05:25.868Z,8.50
2023-12-21T08:07:53.096Z,8.50
2023-12-21T08:10:20.653Z,8.50
2023-12-21T08:12:48.332Z,8.50
2023-12-21T08:15:15.837Z,8.50
2023-12-21T08:17:45.590Z,8.50
2023-12-21T08:20:14.001Z,8.50
2023-12-21T08:22:41.148Z,8.50
2023-12-21T08:25:11.090Z,8.60
2023-12-21T08:27:42.502Z,8.60
2023-12-21T08:30:13.219Z,8.60
2023-12-21T08:32:40.612Z,8.60
2023-12-21T08:35:08.371Z,8.60
2023-12-21T08:37:35.483Z,8.50
2023-12-21T08:40:02.476Z,8.60
2023-12-21T08:42:29.910Z,8.50
2023-12-21T08:44:59.248Z,8.60
2023-12-21T08:47:26.228Z,8.60
2023-12-21T08:49:53.152Z,8.60
2023-12-21T08:52:20.121Z,8.50
2023-12-21T08:54:47.298Z,8.50
2023-12-21T08:57:14.180Z,8.50
2023-12-21T08:59:41.058Z,8.50
2023-12-21T09:02:07.902Z,8.60
2023-12-21T09:04:34.887Z,8.60
2023-12-21T09:07:01.760Z,8.60
2023-12-21T09:09:30.887Z,8.70
2023-12-21T09:11:57.701Z,8.70
2023-12-21T09:14:25.771Z,8.80
2023-12-21T09:16:55.441Z,8.80
2023-12-21T09:19:22.438Z,8.90
2023-12-21T09:21:49.373Z,8.90
2023-12-21T09:24:16.418Z,9.10
2023-12-21T09:26:44.000Z,9.20
2023-12-21T09:29:11.081Z,9.20
2023-12-21T09:31:38.123Z,9.30
2023-12-21T09:34:06.175Z,9.30
2023-12-21T09:36:34.175Z,9.30
2023-12-21T09:39:04.226Z,9.30
2023-12-21T09:41:31.600Z,9.40
2023-12-21T09:44:00.615Z,9.50
2023-12-21T09:46:29.595Z,9.50
2023-12-21T09:48:57.234Z,9.60
2023-12-21T09:51:25.995Z,9.50
2023-12-21T09:53:54.617Z,9.60
2023-12-21T09:56:23.258Z,9.60
2023-12-21T09:58:50.295Z,9.70
2023-12-21T10:01:18.766Z,9.70
2023-12-21T10:03:46.133Z,9.80
2023-12-21T10:06:13.420Z,9.80
2023-12-21T10:08:50.454Z,9.80
2023-12-21T10:11:17.448Z,9.80
2023-12-21T10:13:48.999Z,9.80
2023-12-21T10:16:17.875Z,9.80
2023-12-21T10:18:45.270Z,9.80
2023-12-21T10:21:12.335Z,9.90
2023-12-21T10:23:40.774Z,9.80
2023-12-21T10:26:07.895Z,9.90
2023-12-21T10:28:35.148Z,9.90
2023-12-21T10:31:04.543Z,9.80
2023-12-21T10:33:34.549Z,9.90
2023-12-21T10:36:01.696Z,9.90
2023-12-21T10:38:30.370Z,10.00
2023-12-21T10:40:59.579Z,9.90
2023-12-21T10:43:26.936Z,10.00
2023-12-21T10:45:54.278Z,9.90
2023-12-21T10:48:24.181Z,9.90
2023-12-21T10:50:53.624Z,9.70
2023-12-21T10:53:24.192Z,9.70
2023-12-21T10:55:52.115Z,9.60
2023-12-21T10:58:20.048Z,9.60
2023-12-21T11:00:48.519Z,9.50
2023-12-21T11:03:18.704Z,9.50
2023-12-21T11:05:46.314Z,9.40
2023-12-21T11:08:13.774Z,9.40
2023-12-21T11:10:42.081Z,9.30
2023-12-21T11:13:08.996Z,9.40
2023-12-21T11:15:37.417Z,9.40
2023-12-21T11:18:10.146Z,9.30
2023-12-21T11:20:51.881Z,9.40
2023-12-21T11:23:19.995Z,9.40
2023-12-21T11:25:59.622Z,9.40
2023-12-21T11:28:29.138Z,9.40
2023-12-21T11:30:56.377Z,9.50
2023-12-21T11:33:31.395Z,9.60
2023-12-21T11:36:04.241Z,9.60
2023-12-21T11:38:51.525Z,9.70
2023-12-21T11:41:23.970Z,9.70
2023-12-21T11:44:06.161Z,9.70
2023-12-21T11:46:34.689Z,9.70
2023-12-21T11:49:01.768Z,9.60
2023-12-21T11:51:28.622Z,9.60
2023-12-21T11:53:55.500Z,9.70
2023-12-21T11:56:22.404Z,9.70
2023-12-21T11:58:50.463Z,9.70
2023-12-21T12:01:24.904Z,9.80
2023-12-21T12:03:52.751Z,9.80
2023-12-21T12:06:20.332Z,9.90
2023-12-21T12:08:47.530Z,9.90
2023-12-21T12:11:14.808Z,10.00
2023-12-21T12:13:43.511Z,10.00
2023-12-21T12:16:10.519Z,10.00
2023-12-21T12:18:37.270Z,10.00
2023-12-21T12:21:04.764Z,9.90
2023-12-21T12:23:31.803Z,9.90
2023-12-21T12:25:58.983Z,9.90
2023-12-21T12:28:26.544Z,9.90
2023-12-21T12:30:55.651Z,9.80
2023-12-21T12:33:23.036Z,9.80
2023-12-21T12:35:51.022Z,9.80
2023-12-21T12:38:18.117Z,9.70
2023-12-21T12:40:48.569Z,9.70
2023-12-21T12:43:15.596Z,9.70
2023-12-21T12:45:43.205Z,9.70
2023-12-21T12:48:15.262Z,9.70
2023-12-21T12:50:44.191Z,9.70
2023-12-21T12:53:11.330Z,9.70
2023-12-21T12:55:38.745Z,9.60
2023-12-21T12:58:06.011Z,9.70
2023-12-21T13:00:32.954Z,9.70
2023-12-21T13:03:00.059Z,9.70
2023-12-21T13:05:26.955Z,9.70
2023-12-21T13:07:54.007Z,9.70
2023-12-21T13:10:20.962Z,9.70
2023-12-21T13:12:47.938Z,9.70
2023-12-21T13:15:15.741Z,9.70
2023-12-21T13:17:42.636Z,9.70
2023-12-21T13:20:12.883Z,9.80
2023-12-21T13:22:40.618Z,9.80
2023-12-21T13:25:08.062Z,9.80
2023-12-21T13:27:35.409Z,9.80
2023-12-21T13:30:02.994Z,9.80
2023-12-21T13:32:30.535Z,9.90
2023-12-21T13:34:58.166Z,10.00
2023-12-21T13:37:25.549Z,10.10
2023-12-21T13:39:52.311Z,10.00
2023-12-21T13:42:19.193Z,10.10
2023-12-21T13:44:45.837Z,10.10
2023-12-21T13:47:15.714Z,10.10
2023-12-21T13:49:42.661Z,10.10
2023-12-21T13:52:09.619Z,10.10
2023-12-21T13:54:36.527Z,10.10
2023-12-21T13:57:10.885Z,10.10
2023-12-21T13:59:41.669Z,10.10
2023-12-21T14:02:09.602Z,10.10
2023-12-21T14:04:37.208Z,10.20
2023-12-21T14:07:04.870Z,10.10
2023-12-21T14:09:31.870Z,10.10
2023-12-21T14:11:58.539Z,10.10
2023-12-21T14:14:25.347Z,10.10
2023-12-21T14:16:52.147Z,10.10
2023-12-21T14:19:21.119Z,10.10
2023-12-21T14:21:48.093Z,10.10
2023-12-21T14:24:14.838Z,10.10
2023-12-21T14:26:42.292Z,10.10
2023-12-21T14:29:09.285Z,10.10
2023-12-21T14:31:36.171Z,10.10
2023-12-21T14:34:04.072Z,10.00
2023-12-21T14:36:31.393Z,10.00
2023-12-21T14:38:58.720Z,10.00
2023-12-21T14:41:25.592Z,10.00
2023-12-21T14:43:52.447Z,10.00
2023-12-21T14:46:19.622Z,10.00
2023-12-21T14:48:46.569Z,10.00
2023-12-21T14:51:17.562Z,10.00
2023-12-21T14:53:44.762Z,10.00
2023-12-21T14:56:11.998Z,9.90
2023-12-21T14:58:38.952Z,9.90
2023-12-21T15:01:07.959Z,9.90
2023-12-21T15:03:35.733Z,9.90
2023-12-21T15:06:03.966Z,9.90
2023-12-21T15:08:31.039Z,9.90
2023-12-21T15:10:59.039Z,9.80
2023-12-21T15:13:27.671Z,9.90
2023-12-21T15:15:54.567Z,9.80
2023-12-21T15:18:22.863Z,9.80
2023-12-21T15:20:50.464Z,9.80
2023-12-21T15:23:17.793Z,9.90
2023-12-21T15:25:44.740Z,10.00
2023-12-21T15:28:11.563Z,10.10
2023-12-21T15:30:38.426Z,10.10
2023-12-21T15:33:05.471Z,10.20
2023-12-21T15:35:32.588Z,10.20
2023-12-21T15:37:59.556Z,10.20
2023-12-21T15:40:26.571Z,10.30
2023-12-21T15:42:53.394Z,10.40
2023-12-21T15:45:20.237Z,10.40
2023-12-21T15:47:48.827Z,10.40
2023-12-21T15:50:17.965Z,10.40
2023-12-21T15:52:45.433Z,10.40
2023-12-21T15:55:12.771Z,10.40
2023-12-21T15:57:39.691Z,10.40
2023-12-21T16:00:11.336Z,10.30
2023-12-21T16:02:38.295Z,10.30
2023-12-21T16:05:06.077Z,10.30
2023-12-21T16:07:33.321Z,10.30
2023-12-21T16:10:00.368Z,10.30
2023-12-21T16:12:27.321Z,10.40
2023-12-21T16:14:54.161Z,10.40
2023-12-21T16:17:23.319Z,10.50
2023-12-21T16:19:51.530Z,10.60
2023-12-21T16:22:19.531Z,10.60
2023-12-21T16:24:47.275Z,10.70
2023-12-21T16:27:14.171Z,10.70
2023-12-21T16:29:41.577Z,10.70
2023-12-21T16:32:09.352Z,10.70
2023-12-21T16:34:41.255Z,10.70
2023-12-21T16:37:09.364Z,10.70
2023-12-21T16:39:36.778Z,10.70
2023-12-21T16:42:04.312Z,10.80
2023-12-21T16:44:31.262Z,10.80
2023-12-21T16:46:58.974Z,10.80
2023-12-21T16:49:26.821Z,10.90
2023-12-21T16:51:54.090Z,10.90
2023-12-21T16:54:22.325Z,10.80
2023-12-21T16:56:49.332Z,10.80
2023-12-21T16:59:16.123Z,10.80
2023-12-21T17:01:43.231Z,10.80
2023-12-21T17:04:10.687Z,10.70
2023-12-21T17:06:37.498Z,10.70
2023-12-21T17:09:05.801Z,10.70
2023-12-21T17:11:32.810Z,10.70
2023-12-21T17:13:59.601Z,10.70
2023-12-21T17:16:26.489Z,10.70
2023-12-21T17:18:54.553Z,10.80
2023-12-21T17:21:21.497Z,10.80
2023-12-21T17:23:50.548Z,10.70
2023-12-21T17:26:21.023Z,10.60
2023-12-21T17:28:50.482Z,10.50
2023-12-21T17:31:26.436Z,10.40
2023-12-21T17:33:54.537Z,10.40
2023-12-21T17:36:34.622Z,10.30
2023-12-21T17:39:04.153Z,10.20
2023-12-21T17:41:31.688Z,10.10
2023-12-21T17:44:48.250Z,10.10
2023-12-21T17:47:21.054Z,10.00
2023-12-21T17:49:48.094Z,10.00
2023-12-21T17:52:20.874Z,9.90
2023-12-21T17:54:56.380Z,9.90
2023-12-21T17:57:23.832Z,9.90
2023-12-21T17:59:51.435Z,9.80
2023-12-21T18:02:21.722Z,9.80
2023-12-21T18:04:54.774Z,9.80
2023-12-21T18:07:26.629Z,9.80
2023-12-21T18:09:54.799Z,9.80
2023-12-21T18:12:23.231Z,9.80
2023-12-21T18:15:14.270Z,9.80
2023-12-21T18:17:39.236Z,9.80
2023-12-21T18:20:07.317Z,9.70
2023-12-21T18:22:34.259Z,9.70
2023-12-21T18:25:01.369Z,9.70
2023-12-21T18:27:28.214Z,9.70
2023-12-21T18:29:58.066Z,9.70
2023-12-21T18:32:24.979Z,9.80
2023-12-21T18:34:54.003Z,9.80
2023-12-21T18:37:20.956Z,9.90
2023-12-21T18:39:47.732Z,10.00
2023-12-21T18:42:14.522Z,10.20
2023-12-21T18:44:42.112Z,10.30
2023-12-21T18:47:10.091Z,10.30
2023-12-21T18:49:37.690Z,10.40
2023-12-21T18:52:04.917Z,10.40
2023-12-21T18:54:31.694Z,10.30
2023-12-21T18:56:59.205Z,10.30
2023-12-21T18:59:26.096Z,10.30
2023-12-21T19:01:53.947Z,10.20
2023-12-21T19:04:21.433Z,10.10
2023-12-21T19:06:48.334Z,9.70
2023-12-21T19:09:15.381Z,9.40
2023-12-21T19:11:42.347Z,9.10
2023-12-21T19:14:09.209Z,8.80
2023-12-21T19:16:44.252Z,8.70
2023-12-21T19:19:11.373Z,8.50
2023-12-21T19:21:38.333Z,8.30
2023-12-21T19:24:05.117Z,8.10
2023-12-21T19:26:31.911Z,8.10
2023-12-21T19:28:58.762Z,8.00
2023-12-21T19:31:26.166Z,7.90
2023-12-21T19:33:53.192Z,7.90
2023-12-21T19:36:20.125Z,8.00
2023-12-21T19:38:48.956Z,8.00
2023-12-21T19:41:15.908Z,8.00
2023-12-21T19:43:42.744Z,8.00
2023-12-21T19:46:09.651Z,8.00
2023-12-21T19:48:37.521Z,7.90
2023-12-21T19:51:04.955Z,8.00
2023-12-21T19:53:31.812Z,7.90
2023-12-21T19:55:58.646Z,8.00
2023-12-21T19:58:25.813Z,8.00
2023-12-21T20:00:53.342Z,7.90
2023-12-21T20:03:20.143Z,7.90
2023-12-21T20:05:47.024Z,7.90
2023-12-21T20:08:13.851Z,7.90
2023-12-21T20:10:41.039Z,7.90
2023-12-21T20:13:08.905Z,7.90
2023-12-21T20:15:35.985Z,7.90
2023-12-21T20:18:05.192Z,8.00
2023-12-21T20:20:32.786Z,8.10
2023-12-21T20:23:00.764Z,8.30
2023-12-21T20:25:27.739Z,8.40
2023-12-21T20:27:55.862Z,8.20
2023-12-21T20:30:22.931Z,8.00
2023-12-21T20:32:51.892Z,7.60
2023-12-21T20:35:19.545Z,7.40
2023-12-21T20:37:47.614Z,7.20
2023-12-21T20:40:17.784Z,7.00
2023-12-21T20:42:46.671Z,6.90
2023-12-21T20:45:14.664Z,6.80
2023-12-21T20:47:43.217Z,6.70
2023-12-21T20:50:12.397Z,6.60
2023-12-21T20:52:41.344Z,6.40
2023-12-21T20:55:08.895Z,6.30
2023-12-21T20:57:35.725Z,6.30
2023-12-21T21:00:02.543Z,6.20
2023-12-21T21:02:29.329Z,6.20
2023-12-21T21:04:56.307Z,6.20
2023-12-21T21:07:23.597Z,6.40
2023-12-21T21:09:50.437Z,6.40
2023-12-21T21:12:17.379Z,6.40
2023-12-21T21:14:44.232Z,6.50
2023-12-21T21:17:11.214Z,6.50
2023-12-21T21:19:38.053Z,6.50
2023-12-21T21:22:05.857Z,6.50
2023-12-21T21:24:32.658Z,6.50
2023-12-21T21:27:00.877Z,6.40
2023-12-21T21:29:27.865Z,6.40
2023-12-21T21:31:54.747Z,6.30
2023-12-21T21:34:22.636Z,6.20
2023-12-21T21:36:49.468Z,6.10
2023-12-21T21:39:16.379Z,6.10
2023-12-21T21:41:44.195Z,6.10
2023-12-21T21:44:11.062Z,6.00
2023-12-21T21:46:39.337Z,6.00
2023-12-21T21:49:06.200Z,5.90
2023-12-21T21:51:34.877Z,5.90
2023-12-21T21:54:01.676Z,5.90
2023-12-21T21:56:28.546Z,5.80
2023-12-21T21:59:01.261Z,5.80
2023-12-21T22:01:29.150Z,5.70
2023-12-21T22:03:56.479Z,5.70
2023-12-21T22:06:27.444Z,5.70
2023-12-21T22:08:55.233Z,5.60
2023-12-21T22:11:23.053Z,5.60
2023-12-21T22:13:50.495Z,5.50
2023-12-21T22:16:17.553Z,5.40
2023-12-21T22:18:44.507Z,5.40
2023-12-21T22:21:11.463Z,5.30
2023-12-21T22:23:38.251Z,5.30
2023-12-21T22:26:06.194Z,5.20
2023-12-21T22:28:33.177Z,5.20
2023-12-21T22:31:00.024Z,5.20
2023-12-21T22:33:27.261Z,5.10
2023-12-21T22:35:54.048Z,5.20
2023-12-21T22:38:20.814Z,5.10
2023-12-21T22:40:47.780Z,5.10
2023-12-21T22:43:25.345Z,5.10
2023-12-21T22:46:02.028Z,5.10
2023-12-21T22:48:31.566Z,5.20
2023-12-21T22:50:58.486Z,5.20
2023-12-21T22:53:25.255Z,5.20
2023-12-21T22:55:52.232Z,5.20
2023-12-21T22:58:19.872Z,5.20
2023-12-21T23:00:46.794Z,5.20
2023-12-21T23:03:13.701Z,5.20
2023-12-21T23:05:42.323Z,5.20
2023-12-21T23:08:09.855Z,5.30
2023-12-21T23:10:37.574Z,5.30
2023-12-21T23:13:04.840Z,5.40
2023-12-21T23:15:31.896Z,5.40
2023-12-21T23:18:00.872Z,5.40
2023-12-21T23:20:28.070Z,5.40
2023-12-21T23:22:54.947Z,5.50
2023-12-21T23:25:21.821Z,5.50
2023-12-21T23:27:48.684Z,5.50
2023-12-21T23:30:15.742Z,5.60
2023-12-21T23:32:42.516Z,5.60
2023-12-21T23:35:16.879Z,5.50
2023-12-21T23:37:46.616Z,5.50
2023-12-21T23:40:14.365Z,5.40
2023-12-21T23:42:41.281Z,5.50
2023-12-21T23:45:08.795Z,5.50
2023-12-21T23:47:35.954Z,5.50
2023-12-21T23:50:03.543Z,5.50
2023-12-21T23:52:30.536Z,5.60
2023-12-21T23:54:57.258Z,5.60
2023-12-21T23:57:24.098Z,5.60
2023-12-21T23:59:52.492Z,5.60
